sensor_id;sensor_type;location;lat;lon;timestamp;P1;durP1;ratioP1;P2;durP2;ratioP2
39750;SDS011;37579;51.074;17.004;2022-12-31T00:01:04;8.38;;;4.07;;
39750;SDS011;37579;51.074;17.004;2022-12-31T00:03:32;6.85;;;4.10;;
39750;SDS011;37579;51.074;17.004;2022-12-31T00:05:58;8.45;;;4.07;;
39750;SDS011;37579;51.074;17.004;2022-12-31T00:08:24;6.25;;;3.92;;
39750;SDS011;37579;51.074;17.004;2022-12-31T00:10:50;6.30;;;3.90;;
39750;SDS011;37579;51.074;17.004;2022-12-31T00:13:16;6.88;;;4.15;;
39750;SDS011;37579;51.074;17.004;2022-12-31T00:15:42;6.50;;;4.30;;
39750;SDS011;37579;51.074;17.004;2022-12-31T00:18:09;8.98;;;4.25;;
39750;SDS011;37579;51.074;17.004;2022-12-31T00:20:39;7.90;;;4.25;;
39750;SDS011;37579;51.074;17.004;2022-12-31T00:23:06;6.00;;;3.95;;
39750;SDS011;37579;51.074;17.004;2022-12-31T00:25:34;5.93;;;3.92;;
39750;SDS011;37579;51.074;17.004;2022-12-31T00:28:01;6.53;;;4.03;;
39750;SDS011;37579;51.074;17.004;2022-12-31T00:30:29;4.88;;;3.58;;
39750;SDS011;37579;51.074;17.004;2022-12-31T00:32:55;6.80;;;3.95;;
39750;SDS011;37579;51.074;17.004;2022-12-31T00:35:21;7.20;;;3.95;;
39750;SDS011;37579;51.074;17.004;2022-12-31T00:37:49;7.32;;;3.42;;
39750;SDS011;37579;51.074;17.004;2022-12-31T00:40:17;6.50;;;3.50;;
39750;SDS011;37579;51.074;17.004;2022-12-31T00:42:42;6.18;;;3.80;;
39750;SDS011;37579;51.074;17.004;2022-12-31T00:45:08;6.28;;;3.70;;
39750;SDS011;37579;51.074;17.004;2022-12-31T00:47:34;5.88;;;3.80;;
39750;SDS011;37579;51.074;17.004;2022-12-31T00:50:00;6.53;;;3.92;;
39750;SDS011;37579;51.074;17.004;2022-12-31T00:52:26;8.52;;;4.45;;
39750;SDS011;37579;51.074;17.004;2022-12-31T00:54:52;5.68;;;3.90;;
39750;SDS011;37579;51.074;17.004;2022-12-31T00:57:17;5.32;;;3.38;;
39750;SDS011;37579;51.074;17.004;2022-12-31T00:59:43;5.40;;;3.45;;
39750;SDS011;37579;51.074;17.004;2022-12-31T01:02:09;5.32;;;3.55;;
39750;SDS011;37579;51.074;17.004;2022-12-31T01:04:35;6.05;;;3.80;;
39750;SDS011;37579;51.074;17.004;2022-12-31T01:07:01;4.72;;;3.25;;
39750;SDS011;37579;51.074;17.004;2022-12-31T01:09:26;5.25;;;3.83;;
39750;SDS011;37579;51.074;17.004;2022-12-31T01:11:52;5.18;;;3.72;;
39750;SDS011;37579;51.074;17.004;2022-12-31T01:14:18;5.70;;;3.72;;
39750;SDS011;37579;51.074;17.004;2022-12-31T01:16:45;5.00;;;3.42;;
39750;SDS011;37579;51.074;17.004;2022-12-31T01:19:17;4.28;;;2.90;;
39750;SDS011;37579;51.074;17.004;2022-12-31T01:21:53;5.72;;;3.63;;
39750;SDS011;37579;51.074;17.004;2022-12-31T01:24:20;5.50;;;3.65;;
39750;SDS011;37579;51.074;17.004;2022-12-31T01:26:47;6.70;;;3.65;;
39750;SDS011;37579;51.074;17.004;2022-12-31T01:29:14;6.57;;;3.85;;
39750;SDS011;37579;51.074;17.004;2022-12-31T01:31:41;5.25;;;3.28;;
39750;SDS011;37579;51.074;17.004;2022-12-31T01:34:08;4.70;;;3.10;;
39750;SDS011;37579;51.074;17.004;2022-12-31T01:36:34;4.78;;;3.35;;
39750;SDS011;37579;51.074;17.004;2022-12-31T01:39:02;6.00;;;3.63;;
39750;SDS011;37579;51.074;17.004;2022-12-31T01:41:30;6.28;;;3.35;;
39750;SDS011;37579;51.074;17.004;2022-12-31T01:46:46;4.63;;;3.17;;
39750;SDS011;37579;51.074;17.004;2022-12-31T01:49:18;4.97;;;3.20;;
39750;SDS011;37579;51.074;17.004;2022-12-31T01:54:21;4.28;;;3.13;;
39750;SDS011;37579;51.074;17.004;2022-12-31T01:56:48;4.90;;;3.47;;
39750;SDS011;37579;51.074;17.004;2022-12-31T01:59:15;6.28;;;3.55;;
39750;SDS011;37579;51.074;17.004;2022-12-31T02:01:42;4.78;;;3.20;;
39750;SDS011;37579;51.074;17.004;2022-12-31T02:04:11;4.90;;;3.30;;
39750;SDS011;37579;51.074;17.004;2022-12-31T02:06:41;4.18;;;3.08;;
39750;SDS011;37579;51.074;17.004;2022-12-31T02:09:31;4.30;;;3.10;;
39750;SDS011;37579;51.074;17.004;2022-12-31T02:11:58;4.63;;;3.20;;
39750;SDS011;37579;51.074;17.004;2022-12-31T02:14:28;5.90;;;3.15;;
39750;SDS011;37579;51.074;17.004;2022-12-31T02:28:17;4.82;;;3.33;;
39750;SDS011;37579;51.074;17.004;2022-12-31T02:34:05;4.22;;;2.70;;
39750;SDS011;37579;51.074;17.004;2022-12-31T02:36:43;4.60;;;2.85;;
39750;SDS011;37579;51.074;17.004;2022-12-31T02:39:11;3.97;;;2.90;;
39750;SDS011;37579;51.074;17.004;2022-12-31T02:41:38;4.00;;;2.67;;
39750;SDS011;37579;51.074;17.004;2022-12-31T02:46:51;3.92;;;2.78;;
39750;SDS011;37579;51.074;17.004;2022-12-31T03:00:07;3.53;;;2.63;;
39750;SDS011;37579;51.074;17.004;2022-12-31T03:02:54;3.83;;;2.58;;
39750;SDS011;37579;51.074;17.004;2022-12-31T03:05:23;3.58;;;2.45;;
39750;SDS011;37579;51.074;17.004;2022-12-31T03:07:52;3.85;;;2.63;;
39750;SDS011;37579;51.074;17.004;2022-12-31T03:10:18;4.20;;;2.92;;
39750;SDS011;37579;51.074;17.004;2022-12-31T03:12:44;4.45;;;2.72;;
39750;SDS011;37579;51.074;17.004;2022-12-31T03:15:30;3.05;;;2.22;;
39750;SDS011;37579;51.074;17.004;2022-12-31T03:20:35;3.83;;;2.67;;
39750;SDS011;37579;51.074;17.004;2022-12-31T03:23:23;4.47;;;2.55;;
39750;SDS011;37579;51.074;17.004;2022-12-31T03:25:51;3.13;;;2.40;;
39750;SDS011;37579;51.074;17.004;2022-12-31T03:28:20;3.90;;;2.50;;
39750;SDS011;37579;51.074;17.004;2022-12-31T03:30:50;4.28;;;2.60;;
39750;SDS011;37579;51.074;17.004;2022-12-31T03:33:19;3.15;;;2.22;;
39750;SDS011;37579;51.074;17.004;2022-12-31T03:35:46;3.97;;;2.70;;
39750;SDS011;37579;51.074;17.004;2022-12-31T03:38:14;3.50;;;2.55;;
39750;SDS011;37579;51.074;17.004;2022-12-31T03:40:43;2.75;;;2.22;;
39750;SDS011;37579;51.074;17.004;2022-12-31T03:43:11;2.67;;;2.22;;
39750;SDS011;37579;51.074;17.004;2022-12-31T03:45:37;3.17;;;2.40;;
39750;SDS011;37579;51.074;17.004;2022-12-31T03:48:04;3.85;;;2.35;;
39750;SDS011;37579;51.074;17.004;2022-12-31T03:50:32;2.03;;;1.83;;
39750;SDS011;37579;51.074;17.004;2022-12-31T03:52:58;2.95;;;2.10;;
39750;SDS011;37579;51.074;17.004;2022-12-31T03:55:25;4.15;;;2.63;;
39750;SDS011;37579;51.074;17.004;2022-12-31T03:57:51;2.95;;;2.10;;
39750;SDS011;37579;51.074;17.004;2022-12-31T04:00:17;3.22;;;2.10;;
39750;SDS011;37579;51.074;17.004;2022-12-31T04:02:45;3.05;;;2.13;;
39750;SDS011;37579;51.074;17.004;2022-12-31T04:05:12;3.05;;;2.20;;
39750;SDS011;37579;51.074;17.004;2022-12-31T04:07:39;3.70;;;2.47;;
39750;SDS011;37579;51.074;17.004;2022-12-31T04:10:05;2.60;;;2.00;;
39750;SDS011;37579;51.074;17.004;2022-12-31T04:12:33;4.00;;;2.42;;
39750;SDS011;37579;51.074;17.004;2022-12-31T04:15:00;2.70;;;2.17;;
39750;SDS011;37579;51.074;17.004;2022-12-31T04:17:26;4.15;;;2.40;;
39750;SDS011;37579;51.074;17.004;2022-12-31T04:19:52;4.18;;;2.30;;
39750;SDS011;37579;51.074;17.004;2022-12-31T04:22:18;2.65;;;2.10;;
39750;SDS011;37579;51.074;17.004;2022-12-31T04:24:44;2.58;;;2.05;;
39750;SDS011;37579;51.074;17.004;2022-12-31T04:27:11;3.05;;;2.42;;
39750;SDS011;37579;51.074;17.004;2022-12-31T04:29:37;2.95;;;2.15;;
39750;SDS011;37579;51.074;17.004;2022-12-31T04:32:03;3.40;;;2.22;;
39750;SDS011;37579;51.074;17.004;2022-12-31T04:34:30;2.13;;;1.73;;
39750;SDS011;37579;51.074;17.004;2022-12-31T04:36:56;2.17;;;1.83;;
39750;SDS011;37579;51.074;17.004;2022-12-31T04:39:22;3.13;;;1.90;;
39750;SDS011;37579;51.074;17.004;2022-12-31T04:41:48;2.55;;;1.90;;
39750;SDS011;37579;51.074;17.004;2022-12-31T04:44:14;2.85;;;1.95;;
39750;SDS011;37579;51.074;17.004;2022-12-31T04:46:40;2.28;;;1.88;;
39750;SDS011;37579;51.074;17.004;2022-12-31T04:49:06;2.92;;;1.98;;
39750;SDS011;37579;51.074;17.004;2022-12-31T04:51:32;3.17;;;2.10;;
39750;SDS011;37579;51.074;17.004;2022-12-31T04:53:58;2.30;;;1.90;;
39750;SDS011;37579;51.074;17.004;2022-12-31T04:56:25;2.60;;;2.10;;
39750;SDS011;37579;51.074;17.004;2022-12-31T04:58:52;3.08;;;1.80;;
39750;SDS011;37579;51.074;17.004;2022-12-31T05:01:18;2.60;;;1.80;;
39750;SDS011;37579;51.074;17.004;2022-12-31T05:03:45;1.92;;;1.58;;
39750;SDS011;37579;51.074;17.004;2022-12-31T05:06:15;2.67;;;1.75;;
39750;SDS011;37579;51.074;17.004;2022-12-31T05:08:43;2.47;;;2.20;;
39750;SDS011;37579;51.074;17.004;2022-12-31T05:11:09;3.75;;;1.83;;
39750;SDS011;37579;51.074;17.004;2022-12-31T05:13:35;3.10;;;2.30;;
39750;SDS011;37579;51.074;17.004;2022-12-31T05:16:01;2.55;;;1.95;;
39750;SDS011;37579;51.074;17.004;2022-12-31T05:18:28;2.70;;;1.83;;
39750;SDS011;37579;51.074;17.004;2022-12-31T05:20:55;2.53;;;1.80;;
39750;SDS011;37579;51.074;17.004;2022-12-31T05:23:22;2.40;;;1.80;;
39750;SDS011;37579;51.074;17.004;2022-12-31T05:25:48;2.72;;;1.73;;
39750;SDS011;37579;51.074;17.004;2022-12-31T05:28:14;2.20;;;1.70;;
39750;SDS011;37579;51.074;17.004;2022-12-31T05:30:40;2.05;;;1.70;;
39750;SDS011;37579;51.074;17.004;2022-12-31T05:33:06;1.85;;;1.42;;
39750;SDS011;37579;51.074;17.004;2022-12-31T05:35:32;2.58;;;1.77;;
39750;SDS011;37579;51.074;17.004;2022-12-31T05:37:58;1.77;;;1.38;;
39750;SDS011;37579;51.074;17.004;2022-12-31T05:40:25;2.75;;;1.80;;
39750;SDS011;37579;51.074;17.004;2022-12-31T05:42:51;1.80;;;1.52;;
39750;SDS011;37579;51.074;17.004;2022-12-31T05:45:17;2.22;;;1.45;;
39750;SDS011;37579;51.074;17.004;2022-12-31T05:47:43;2.63;;;1.70;;
39750;SDS011;37579;51.074;17.004;2022-12-31T05:50:10;2.05;;;1.73;;
39750;SDS011;37579;51.074;17.004;2022-12-31T05:52:39;2.80;;;1.77;;
39750;SDS011;37579;51.074;17.004;2022-12-31T05:55:05;2.13;;;1.67;;
39750;SDS011;37579;51.074;17.004;2022-12-31T05:57:32;2.28;;;1.60;;
39750;SDS011;37579;51.074;17.004;2022-12-31T05:59:57;2.90;;;2.20;;
39750;SDS011;37579;51.074;17.004;2022-12-31T06:02:23;2.10;;;1.52;;
39750;SDS011;37579;51.074;17.004;2022-12-31T06:04:49;1.80;;;1.55;;
39750;SDS011;37579;51.074;17.004;2022-12-31T06:07:15;1.90;;;1.60;;
39750;SDS011;37579;51.074;17.004;2022-12-31T06:09:41;2.22;;;1.42;;
39750;SDS011;37579;51.074;17.004;2022-12-31T06:12:07;2.13;;;1.40;;
39750;SDS011;37579;51.074;17.004;2022-12-31T06:14:33;1.83;;;1.52;;
39750;SDS011;37579;51.074;17.004;2022-12-31T06:16:59;2.22;;;1.50;;
39750;SDS011;37579;51.074;17.004;2022-12-31T06:19:25;2.50;;;1.60;;
39750;SDS011;37579;51.074;17.004;2022-12-31T06:21:51;1.60;;;1.15;;
39750;SDS011;37579;51.074;17.004;2022-12-31T06:24:17;1.88;;;1.30;;
39750;SDS011;37579;51.074;17.004;2022-12-31T06:26:43;2.20;;;1.60;;
39750;SDS011;37579;51.074;17.004;2022-12-31T06:29:09;1.98;;;1.40;;
39750;SDS011;37579;51.074;17.004;2022-12-31T06:31:35;1.75;;;1.40;;
39750;SDS011;37579;51.074;17.004;2022-12-31T06:34:01;1.67;;;1.15;;
39750;SDS011;37579;51.074;17.004;2022-12-31T06:36:27;2.00;;;1.40;;
39750;SDS011;37579;51.074;17.004;2022-12-31T06:38:54;1.83;;;1.23;;
39750;SDS011;37579;51.074;17.004;2022-12-31T06:41:20;2.10;;;1.35;;
39750;SDS011;37579;51.074;17.004;2022-12-31T06:43:46;2.22;;;1.50;;
39750;SDS011;37579;51.074;17.004;2022-12-31T06:46:13;1.92;;;1.40;;
39750;SDS011;37579;51.074;17.004;2022-12-31T06:48:40;2.08;;;1.50;;
39750;SDS011;37579;51.074;17.004;2022-12-31T06:51:16;1.75;;;1.20;;
39750;SDS011;37579;51.074;17.004;2022-12-31T06:53:44;1.65;;;1.33;;
39750;SDS011;37579;51.074;17.004;2022-12-31T06:58:41;1.80;;;1.40;;
39750;SDS011;37579;51.074;17.004;2022-12-31T07:14:44;2.22;;;1.20;;
39750;SDS011;37579;51.074;17.004;2022-12-31T07:20:14;1.23;;;1.00;;
39750;SDS011;37579;51.074;17.004;2022-12-31T07:22:42;1.63;;;1.20;;
39750;SDS011;37579;51.074;17.004;2022-12-31T07:25:11;3.17;;;1.30;;
39750;SDS011;37579;51.074;17.004;2022-12-31T07:30:28;1.60;;;1.10;;
39750;SDS011;37579;51.074;17.004;2022-12-31T07:33:23;2.00;;;1.23;;
39750;SDS011;37579;51.074;17.004;2022-12-31T07:41:40;1.65;;;1.10;;
39750;SDS011;37579;51.074;17.004;2022-12-31T07:44:40;1.70;;;1.40;;
39750;SDS011;37579;51.074;17.004;2022-12-31T07:47:24;2.22;;;1.15;;
39750;SDS011;37579;51.074;17.004;2022-12-31T07:49:52;1.70;;;1.10;;
39750;SDS011;37579;51.074;17.004;2022-12-31T07:52:19;1.35;;;1.05;;
39750;SDS011;37579;51.074;17.004;2022-12-31T07:54:46;1.60;;;1.20;;
39750;SDS011;37579;51.074;17.004;2022-12-31T07:57:12;1.85;;;1.10;;
39750;SDS011;37579;51.074;17.004;2022-12-31T08:07:52;1.60;;;1.00;;
39750;SDS011;37579;51.074;17.004;2022-12-31T08:10:58;1.08;;;0.80;;
39750;SDS011;37579;51.074;17.004;2022-12-31T08:13:32;1.48;;;0.90;;
39750;SDS011;37579;51.074;17.004;2022-12-31T08:15:58;2.75;;;1.25;;
39750;SDS011;37579;51.074;17.004;2022-12-31T08:18:26;1.50;;;1.10;;
39750;SDS011;37579;51.074;17.004;2022-12-31T08:21:03;2.05;;;1.20;;
39750;SDS011;37579;51.074;17.004;2022-12-31T08:32:57;1.50;;;0.90;;
39750;SDS011;37579;51.074;17.004;2022-12-31T08:37:43;1.00;;;0.80;;
39750;SDS011;37579;51.074;17.004;2022-12-31T08:45:52;1.45;;;0.82;;
39750;SDS011;37579;51.074;17.004;2022-12-31T08:51:20;1.48;;;0.82;;
39750;SDS011;37579;51.074;17.004;2022-12-31T08:53:47;1.77;;;0.98;;
39750;SDS011;37579;51.074;17.004;2022-12-31T08:56:31;1.80;;;0.90;;
39750;SDS011;37579;51.074;17.004;2022-12-31T09:02:34;1.40;;;0.90;;
39750;SDS011;37579;51.074;17.004;2022-12-31T09:05:25;1.98;;;0.80;;
39750;SDS011;37579;51.074;17.004;2022-12-31T09:10:35;2.08;;;0.88;;
39750;SDS011;37579;51.074;17.004;2022-12-31T09:16:26;0.98;;;0.73;;
39750;SDS011;37579;51.074;17.004;2022-12-31T09:19:11;2.65;;;0.90;;
39750;SDS011;37579;51.074;17.004;2022-12-31T09:21:38;3.92;;;1.95;;
39750;SDS011;37579;51.074;17.004;2022-12-31T09:24:10;15.05;;;4.68;;
39750;SDS011;37579;51.074;17.004;2022-12-31T09:35:03;54.33;;;22.85;;
39750;SDS011;37579;51.074;17.004;2022-12-31T09:42:58;53.25;;;21.73;;
39750;SDS011;37579;51.074;17.004;2022-12-31T09:51:36;52.45;;;18.40;;
39750;SDS011;37579;51.074;17.004;2022-12-31T10:05:51;39.72;;;14.82;;
39750;SDS011;37579;51.074;17.004;2022-12-31T10:11:39;34.15;;;13.93;;
39750;SDS011;37579;51.074;17.004;2022-12-31T10:17:01;36.22;;;14.10;;
39750;SDS011;37579;51.074;17.004;2022-12-31T10:19:35;35.22;;;13.23;;
39750;SDS011;37579;51.074;17.004;2022-12-31T10:31:15;30.15;;;10.60;;
39750;SDS011;37579;51.074;17.004;2022-12-31T10:33:55;27.67;;;11.10;;
39750;SDS011;37579;51.074;17.004;2022-12-31T10:39:43;27.60;;;10.13;;
39750;SDS011;37579;51.074;17.004;2022-12-31T10:42:24;23.00;;;8.65;;
39750;SDS011;37579;51.074;17.004;2022-12-31T10:53:18;20.20;;;7.93;;
39750;SDS011;37579;51.074;17.004;2022-12-31T10:58:37;16.83;;;7.00;;
39750;SDS011;37579;51.074;17.004;2022-12-31T11:17:33;12.93;;;5.38;;
39750;SDS011;37579;51.074;17.004;2022-12-31T11:26:13;12.88;;;5.10;;
39750;SDS011;37579;51.074;17.004;2022-12-31T11:34:17;11.98;;;4.20;;
39750;SDS011;37579;51.074;17.004;2022-12-31T11:37:35;8.43;;;4.05;;
39750;SDS011;37579;51.074;17.004;2022-12-31T11:56:31;6.45;;;2.90;;
39750;SDS011;37579;51.074;17.004;2022-12-31T11:59:05;8.20;;;3.05;;
39750;SDS011;37579;51.074;17.004;2022-12-31T12:01:51;7.28;;;2.80;;
39750;SDS011;37579;51.074;17.004;2022-12-31T12:04:21;7.88;;;2.85;;
39750;SDS011;37579;51.074;17.004;2022-12-31T12:06:48;4.80;;;2.45;;
39750;SDS011;37579;51.074;17.004;2022-12-31T12:09:15;7.15;;;2.45;;
39750;SDS011;37579;51.074;17.004;2022-12-31T12:11:58;8.23;;;2.58;;
39750;SDS011;37579;51.074;17.004;2022-12-31T12:14:33;8.77;;;3.08;;
39750;SDS011;37579;51.074;17.004;2022-12-31T12:17:08;7.00;;;2.60;;
39750;SDS011;37579;51.074;17.004;2022-12-31T12:19:43;6.25;;;2.13;;
39750;SDS011;37579;51.074;17.004;2022-12-31T12:22:21;7.43;;;2.42;;
39750;SDS011;37579;51.074;17.004;2022-12-31T12:24:56;7.10;;;2.35;;
39750;SDS011;37579;51.074;17.004;2022-12-31T12:27:28;9.25;;;1.98;;
39750;SDS011;37579;51.074;17.004;2022-12-31T12:29:55;7.88;;;2.40;;
39750;SDS011;37579;51.074;17.004;2022-12-31T12:32:22;6.95;;;2.20;;
39750;SDS011;37579;51.074;17.004;2022-12-31T12:34:50;5.18;;;1.98;;
39750;SDS011;37579;51.074;17.004;2022-12-31T12:37:29;4.53;;;1.70;;
39750;SDS011;37579;51.074;17.004;2022-12-31T12:40:06;4.53;;;2.28;;
39750;SDS011;37579;51.074;17.004;2022-12-31T12:42:46;5.00;;;2.17;;
39750;SDS011;37579;51.074;17.004;2022-12-31T12:45:14;9.05;;;2.92;;
39750;SDS011;37579;51.074;17.004;2022-12-31T12:47:45;4.38;;;1.83;;
39750;SDS011;37579;51.074;17.004;2022-12-31T12:50:16;5.90;;;2.00;;
39750;SDS011;37579;51.074;17.004;2022-12-31T12:52:51;8.07;;;2.65;;
39750;SDS011;37579;51.074;17.004;2022-12-31T13:00:40;6.90;;;2.08;;
39750;SDS011;37579;51.074;17.004;2022-12-31T13:09:02;6.57;;;1.73;;
39750;SDS011;37579;51.074;17.004;2022-12-31T13:11:42;7.72;;;2.22;;
39750;SDS011;37579;51.074;17.004;2022-12-31T13:17:04;9.15;;;2.28;;
39750;SDS011;37579;51.074;17.004;2022-12-31T13:19:38;4.05;;;1.60;;
39750;SDS011;37579;51.074;17.004;2022-12-31T13:22:30;6.40;;;1.77;;
39750;SDS011;37579;51.074;17.004;2022-12-31T13:27:40;5.95;;;1.73;;
39750;SDS011;37579;51.074;17.004;2022-12-31T13:30:19;5.25;;;2.38;;
39750;SDS011;37579;51.074;17.004;2022-12-31T13:32:59;6.80;;;1.70;;
39750;SDS011;37579;51.074;17.004;2022-12-31T13:38:39;6.35;;;2.05;;
39750;SDS011;37579;51.074;17.004;2022-12-31T13:44:01;7.75;;;2.10;;
39750;SDS011;37579;51.074;17.004;2022-12-31T13:49:15;9.50;;;1.95;;
39750;SDS011;37579;51.074;17.004;2022-12-31T13:51:48;7.10;;;2.53;;
39750;SDS011;37579;51.074;17.004;2022-12-31T13:57:10;9.13;;;2.30;;
39750;SDS011;37579;51.074;17.004;2022-12-31T13:59:56;7.40;;;2.25;;
39750;SDS011;37579;51.074;17.004;2022-12-31T14:02:39;7.13;;;1.80;;
39750;SDS011;37579;51.074;17.004;2022-12-31T14:05:20;5.38;;;1.98;;
39750;SDS011;37579;51.074;17.004;2022-12-31T14:07:54;7.78;;;1.85;;
39750;SDS011;37579;51.074;17.004;2022-12-31T14:10:39;4.78;;;1.90;;
39750;SDS011;37579;51.074;17.004;2022-12-31T14:16:00;9.00;;;3.33;;
39750;SDS011;37579;51.074;17.004;2022-12-31T14:18:50;16.40;;;5.38;;
39750;SDS011;37579;51.074;17.004;2022-12-31T14:24:57;23.70;;;5.78;;
39750;SDS011;37579;51.074;17.004;2022-12-31T14:27:06;16.20;;;5.03;;
39750;SDS011;37579;51.074;17.004;2022-12-31T14:29:46;21.90;;;5.80;;
39750;SDS011;37579;51.074;17.004;2022-12-31T14:52:07;16.23;;;4.55;;
39750;SDS011;37579;51.074;17.004;2022-12-31T14:54:43;12.85;;;4.30;;
39750;SDS011;37579;51.074;17.004;2022-12-31T14:59:50;10.43;;;3.80;;
39750;SDS011;37579;51.074;17.004;2022-12-31T15:02:24;11.85;;;3.97;;
39750;SDS011;37579;51.074;17.004;2022-12-31T15:05:08;12.93;;;4.20;;
39750;SDS011;37579;51.074;17.004;2022-12-31T15:10:22;14.27;;;4.65;;
39750;SDS011;37579;51.074;17.004;2022-12-31T15:21:02;10.35;;;4.13;;
39750;SDS011;37579;51.074;17.004;2022-12-31T15:23:37;13.30;;;4.38;;
39750;SDS011;37579;51.074;17.004;2022-12-31T15:26:15;10.43;;;3.80;;
39750;SDS011;37579;51.074;17.004;2022-12-31T15:28:45;12.20;;;3.70;;
39750;SDS011;37579;51.074;17.004;2022-12-31T15:31:31;10.35;;;4.32;;
39750;SDS011;37579;51.074;17.004;2022-12-31T15:34:00;11.98;;;4.22;;
39750;SDS011;37579;51.074;17.004;2022-12-31T15:36:31;16.35;;;3.75;;
39750;SDS011;37579;51.074;17.004;2022-12-31T15:39:25;11.20;;;3.58;;
39750;SDS011;37579;51.074;17.004;2022-12-31T15:42:02;11.55;;;3.17;;
39750;SDS011;37579;51.074;17.004;2022-12-31T15:44:43;15.68;;;3.90;;
39750;SDS011;37579;51.074;17.004;2022-12-31T15:49:46;14.10;;;4.00;;
39750;SDS011;37579;51.074;17.004;2022-12-31T15:52:13;12.15;;;3.20;;
39750;SDS011;37579;51.074;17.004;2022-12-31T15:54:47;13.10;;;3.38;;
39750;SDS011;37579;51.074;17.004;2022-12-31T15:57:16;9.68;;;3.17;;
39750;SDS011;37579;51.074;17.004;2022-12-31T15:59:45;10.15;;;3.25;;
39750;SDS011;37579;51.074;17.004;2022-12-31T16:02:18;7.50;;;2.90;;
39750;SDS011;37579;51.074;17.004;2022-12-31T16:04:47;10.02;;;3.30;;
39750;SDS011;37579;51.074;17.004;2022-12-31T16:07:14;6.97;;;3.20;;
39750;SDS011;37579;51.074;17.004;2022-12-31T16:09:41;9.27;;;3.42;;
39750;SDS011;37579;51.074;17.004;2022-12-31T16:12:10;10.50;;;3.83;;
39750;SDS011;37579;51.074;17.004;2022-12-31T16:14:43;11.25;;;3.95;;
39750;SDS011;37579;51.074;17.004;2022-12-31T16:19:51;9.05;;;3.42;;
39750;SDS011;37579;51.074;17.004;2022-12-31T16:22:22;11.60;;;3.40;;
39750;SDS011;37579;51.074;17.004;2022-12-31T16:24:57;11.23;;;3.55;;
39750;SDS011;37579;51.074;17.004;2022-12-31T16:27:25;9.98;;;2.95;;
39750;SDS011;37579;51.074;17.004;2022-12-31T16:29:59;12.27;;;3.47;;
39750;SDS011;37579;51.074;17.004;2022-12-31T16:32:36;13.13;;;3.92;;
39750;SDS011;37579;51.074;17.004;2022-12-31T16:35:18;12.43;;;3.47;;
39750;SDS011;37579;51.074;17.004;2022-12-31T16:37:48;13.23;;;3.80;;
39750;SDS011;37579;51.074;17.004;2022-12-31T16:40:34;11.63;;;4.72;;
39750;SDS011;37579;51.074;17.004;2022-12-31T16:43:00;12.60;;;3.20;;
39750;SDS011;37579;51.074;17.004;2022-12-31T16:45:30;10.75;;;2.97;;
39750;SDS011;37579;51.074;17.004;2022-12-31T16:48:05;10.85;;;3.83;;
39750;SDS011;37579;51.074;17.004;2022-12-31T16:50:41;10.20;;;3.20;;
39750;SDS011;37579;51.074;17.004;2022-12-31T16:53:15;12.07;;;3.08;;
39750;SDS011;37579;51.074;17.004;2022-12-31T16:55:49;9.50;;;3.38;;
39750;SDS011;37579;51.074;17.004;2022-12-31T16:58:33;15.00;;;3.40;;
39750;SDS011;37579;51.074;17.004;2022-12-31T17:01:16;8.18;;;3.10;;
39750;SDS011;37579;51.074;17.004;2022-12-31T17:03:49;8.88;;;2.88;;
39750;SDS011;37579;51.074;17.004;2022-12-31T17:06:18;11.15;;;2.88;;
39750;SDS011;37579;51.074;17.004;2022-12-31T17:14:04;7.32;;;3.17;;
39750;SDS011;37579;51.074;17.004;2022-12-31T17:16:31;7.85;;;2.67;;
39750;SDS011;37579;51.074;17.004;2022-12-31T17:19:25;8.85;;;3.30;;
39750;SDS011;37579;51.074;17.004;2022-12-31T17:22:06;9.48;;;3.22;;
39750;SDS011;37579;51.074;17.004;2022-12-31T17:24:37;10.23;;;2.75;;
39750;SDS011;37579;51.074;17.004;2022-12-31T17:27:04;7.25;;;2.20;;
39750;SDS011;37579;51.074;17.004;2022-12-31T17:29:32;7.95;;;2.85;;
39750;SDS011;37579;51.074;17.004;2022-12-31T17:34:32;6.65;;;2.70;;
39750;SDS011;37579;51.074;17.004;2022-12-31T17:40:15;6.30;;;2.30;;
39750;SDS011;37579;51.074;17.004;2022-12-31T17:42:32;6.35;;;3.15;;
39750;SDS011;37579;51.074;17.004;2022-12-31T17:45:05;8.90;;;2.35;;
39750;SDS011;37579;51.074;17.004;2022-12-31T17:47:39;8.52;;;2.75;;
39750;SDS011;37579;51.074;17.004;2022-12-31T17:50:23;8.38;;;2.60;;
39750;SDS011;37579;51.074;17.004;2022-12-31T17:52:54;7.90;;;2.88;;
39750;SDS011;37579;51.074;17.004;2022-12-31T17:55:34;7.57;;;2.65;;
39750;SDS011;37579;51.074;17.004;2022-12-31T17:58:01;8.05;;;2.47;;
39750;SDS011;37579;51.074;17.004;2022-12-31T18:00:29;8.82;;;2.40;;
39750;SDS011;37579;51.074;17.004;2022-12-31T18:02:57;8.02;;;3.67;;
39750;SDS011;37579;51.074;17.004;2022-12-31T18:05:23;7.95;;;2.28;;
39750;SDS011;37579;51.074;17.004;2022-12-31T18:07:50;8.98;;;2.10;;
39750;SDS011;37579;51.074;17.004;2022-12-31T18:10:17;5.30;;;2.22;;
39750;SDS011;37579;51.074;17.004;2022-12-31T18:12:44;4.35;;;1.90;;
39750;SDS011;37579;51.074;17.004;2022-12-31T18:15:15;5.78;;;2.30;;
39750;SDS011;37579;51.074;17.004;2022-12-31T18:17:43;11.00;;;2.72;;
39750;SDS011;37579;51.074;17.004;2022-12-31T18:20:09;7.03;;;2.45;;
39750;SDS011;37579;51.074;17.004;2022-12-31T18:22:36;6.95;;;2.63;;
39750;SDS011;37579;51.074;17.004;2022-12-31T18:25:03;7.78;;;2.15;;
39750;SDS011;37579;51.074;17.004;2022-12-31T18:27:30;4.93;;;2.60;;
39750;SDS011;37579;51.074;17.004;2022-12-31T18:29:58;7.88;;;2.10;;
39750;SDS011;37579;51.074;17.004;2022-12-31T18:32:25;5.03;;;2.13;;
39750;SDS011;37579;51.074;17.004;2022-12-31T18:34:52;6.47;;;2.45;;
39750;SDS011;37579;51.074;17.004;2022-12-31T18:37:19;6.63;;;2.47;;
39750;SDS011;37579;51.074;17.004;2022-12-31T18:39:45;6.40;;;2.50;;
39750;SDS011;37579;51.074;17.004;2022-12-31T18:42:12;5.85;;;2.10;;
39750;SDS011;37579;51.074;17.004;2022-12-31T18:44:39;6.35;;;2.10;;
39750;SDS011;37579;51.074;17.004;2022-12-31T18:47:13;11.30;;;2.45;;
39750;SDS011;37579;51.074;17.004;2022-12-31T18:49:40;21.90;;;3.05;;
39750;SDS011;37579;51.074;17.004;2022-12-31T18:52:13;8.25;;;2.13;;
39750;SDS011;37579;51.074;17.004;2022-12-31T18:54:41;8.07;;;2.33;;
39750;SDS011;37579;51.074;17.004;2022-12-31T18:57:11;10.35;;;2.42;;
39750;SDS011;37579;51.074;17.004;2022-12-31T18:59:38;11.00;;;2.88;;
39750;SDS011;37579;51.074;17.004;2022-12-31T19:02:04;9.50;;;2.65;;
39750;SDS011;37579;51.074;17.004;2022-12-31T19:04:44;5.72;;;2.58;;
39750;SDS011;37579;51.074;17.004;2022-12-31T19:07:11;6.00;;;2.10;;
39750;SDS011;37579;51.074;17.004;2022-12-31T19:09:37;6.28;;;2.13;;
39750;SDS011;37579;51.074;17.004;2022-12-31T19:12:03;8.75;;;2.78;;
39750;SDS011;37579;51.074;17.004;2022-12-31T19:14:29;4.50;;;2.40;;
39750;SDS011;37579;51.074;17.004;2022-12-31T19:16:55;5.35;;;2.42;;
39750;SDS011;37579;51.074;17.004;2022-12-31T19:19:23;5.32;;;2.28;;
39750;SDS011;37579;51.074;17.004;2022-12-31T19:21:49;5.28;;;2.35;;
39750;SDS011;37579;51.074;17.004;2022-12-31T19:24:16;6.65;;;2.53;;
39750;SDS011;37579;51.074;17.004;2022-12-31T19:26:44;7.07;;;2.65;;
39750;SDS011;37579;51.074;17.004;2022-12-31T19:29:19;3.03;;;2.20;;
39750;SDS011;37579;51.074;17.004;2022-12-31T19:31:47;3.75;;;2.10;;
39750;SDS011;37579;51.074;17.004;2022-12-31T19:34:13;3.67;;;1.80;;
39750;SDS011;37579;51.074;17.004;2022-12-31T19:36:40;18.92;;;2.28;;
39750;SDS011;37579;51.074;17.004;2022-12-31T19:39:08;17.50;;;2.42;;
39750;SDS011;37579;51.074;17.004;2022-12-31T19:41:43;10.57;;;2.50;;